sensor_id;sensor_type;location;lat;lon;timestamp;temperature;humidity
15288;DHT22;7745;48.708;9.026;2023-12-22T00:00:13;6.90;99.90
15288;DHT22;7745;48.708;9.026;2023-12-22T00:02:42;7.00;99.90
15288;DHT22;7745;48.708;9.026;2023-12-22T00:05:08;7.20;99.90
15288;DHT22;7745;48.708;9.026;2023-12-22T00:07:35;7.10;99.90
15288;DHT22;7745;48.708;9.026;2023-12-22T00:10:02;7.10;99.90
15288;DHT22;7745;48.708;9.026;2023-12-22T00:12:29;7.10;99.90
15288;DHT22;7745;48.708;9.026;2023-12-22T00:14:56;7.10;99.90
15288;DHT22;7745;48.708;9.026;2023-12-22T00:17:23;7.20;99.90
15288;DHT22;7745;48.708;9.026;2023-12-22T00:19:51;7.20;99.90
15288;DHT22;7745;48.708;9.026;2023-12-22T00:22:18;7.20;99.90
15288;DHT22;7745;48.708;9.026;2023-12-22T00:24:45;7.30;99.90
15288;DHT22;7745;48.708;9.026;2023-12-22T00:27:12;7.30;99.90
15288;DHT22;7745;48.708;9.026;2023-12-22T00:29:38;7.30;99.90
15288;DHT22;7745;48.708;9.026;2023-12-22T00:32:05;7.70;99.90
15288;DHT22;7745;48.708;9.026;2023-12-22T00:34:35;7.30;99.90
15288;DHT22;7745;48.708;9.026;2023-12-22T00:37:03;7.30;99.90
15288;DHT22;7745;48.708;9.026;2023-12-22T00:39:31;7.30;99.90
15288;DHT22;7745;48.708;9.026;2023-12-22T00:41:57;7.30;99.90
15288;DHT22;7745;48.708;9.026;2023-12-22T00:44:24;7.30;99.90
15288;DHT22;7745;48.708;9.026;2023-12-22T00:46:53;7.30;99.90
15288;DHT22;7745;48.708;9.026;2023-12-22T00:49:20;7.30;99.90
15288;DHT22;7745;48.708;9.026;2023-12-22T00:51:47;7.40;99.90
15288;DHT22;7745;48.708;9.026;2023-12-22T00:54:15;7.50;99.90
15288;DHT22;7745;48.708;9.026;2023-12-22T00:56:42;7.40;99.90
15288;DHT22;7745;48.708;9.026;2023-12-22T00:59:09;7.40;99.90
15288;DHT22;7745;48.708;9.026;2023-12-22T01:01:35;7.40;99.90
15288;DHT22;7745;48.708;9.026;2023-12-22T01:04:03;7.40;99.90
15288;DHT22;7745;48.708;9.026;2023-12-22T01:06:29;7.40;99.90
15288;DHT22;7745;48.708;9.026;2023-12-22T01:08:56;7.30;99.90
15288;DHT22;7745;48.708;9.026;2023-12-22T01:11:24;7.30;99.90
15288;DHT22;7745;48.708;9.026;2023-12-22T01:13:51;7.70;99.90
15288;DHT22;7745;48.708;9.026;2023-12-22T01:16:18;7.30;99.90
15288;DHT22;7745;48.708;9.026;2023-12-22T01:18:47;7.30;99.90
15288;DHT22;7745;48.708;9.026;2023-12-22T01:21:14;7.20;99.90
15288;DHT22;7745;48.708;9.026;2023-12-22T01:23:41;7.20;99.90
15288;DHT22;7745;48.708;9.026;2023-12-22T01:26:08;7.20;99.90
15288;DHT22;7745;48.708;9.026;2023-12-22T01:28:36;7.20;99.90
15288;DHT22;7745;48.708;9.026;2023-12-22T01:31:03;7.20;99.90
15288;DHT22;7745;48.708;9.026;2023-12-22T01:33:29;7.20;99.90
15288;DHT22;7745;48.708;9.026;2023-12-22T01:35:56;7.20;99.90
15288;DHT22;7745;48.708;9.026;2023-12-22T01:38:23;7.20;99.90
15288;DHT22;7745;48.708;9.026;2023-12-22T01:40:50;7.20;99.90
15288;DHT22;7745;48.708;9.026;2023-12-22T01:43:17;7.20;99.90
15288;DHT22;7745;48.708;9.026;2023-12-22T01:45:49;7.20;99.90
15288;DHT22;7745;48.708;9.026;2023-12-22T01:48:16;7.20;99.90
15288;DHT22;7745;48.708;9.026;2023-12-22T01:50:43;7.50;99.90
15288;DHT22;7745;48.708;9.026;2023-12-22T01:53:10;7.10;99.90
15288;DHT22;7745;48.708;9.026;2023-12-22T01:55:37;7.30;99.90
15288;DHT22;7745;48.708;9.026;2023-12-22T01:58:04;7.20;99.90
15288;DHT22;7745;48.708;9.026;2023-12-22T02:00:31;7.30;99.90
15288;DHT22;7745;48.708;9.026;2023-12-22T02:02:59;7.10;99.90
15288;DHT22;7745;48.708;9.026;2023-12-22T02:05:26;7.20;99.90
15288;DHT22;7745;48.708;9.026;2023-12-22T02:07:55;7.10;99.90
15288;DHT22;7745;48.708;9.026;2023-12-22T02:10:22;7.10;99.90
15288;DHT22;7745;48.708;9.026;2023-12-22T02:12:49;7.10;99.90
15288;DHT22;7745;48.708;9.026;2023-12-22T02:15:16;7.10;99.90
15288;DHT22;7745;48.708;9.026;2023-12-22T02:17:46;7.10;99.90
15288;DHT22;7745;48.708;9.026;2023-12-22T02:20:16;7.10;99.90
15288;DHT22;7745;48.708;9.026;2023-12-22T02:22:44;7.10;99.90
15288;DHT22;7745;48.708;9.026;2023-12-22T02:25:11;7.10;99.90
15288;DHT22;7745;48.708;9.026;2023-12-22T02:27:42;7.20;99.90
15288;DHT22;7745;48.708;9.026;2023-12-22T02:30:14;7.10;99.90
15288;DHT22;7745;48.708;9.026;2023-12-22T02:32:43;7.20;99.90
15288;DHT22;7745;48.708;9.026;2023-12-22T02:35:14;7.00;99.90
15288;DHT22;7745;48.708;9.026;2023-12-22T02:37:42;7.00;99.90
15288;DHT22;7745;48.708;9.026;2023-12-22T02:40:14;7.00;99.90
15288;DHT22;7745;48.708;9.026;2023-12-22T02:42:41;7.10;99.90
15288;DHT22;7745;48.708;9.026;2023-12-22T02:45:13;7.10;99.90
15288;DHT22;7745;48.708;9.026;2023-12-22T02:47:40;7.20;99.90
15288;DHT22;7745;48.708;9.026;2023-12-22T02:50:08;7.20;99.90
15288;DHT22;7745;48.708;9.026;2023-12-22T02:52:35;7.20;99.90
15288;DHT22;7745;48.708;9.026;2023-12-22T02:55:02;7.20;99.90
15288;DHT22;7745;48.708;9.026;2023-12-22T02:57:30;7.20;99.90
15288;DHT22;7745;48.708;9.026;2023-12-22T02:59:58;7.20;99.90
15288;DHT22;7745;48.708;9.026;2023-12-22T03:02:25;7.20;99.90
15288;DHT22;7745;48.708;9.026;2023-12-22T03:04:51;7.20;99.90
15288;DHT22;7745;48.708;9.026;2023-12-22T03:07:18;7.20;99.90
15288;DHT22;7745;48.708;9.026;2023-12-22T03:09:45;7.20;99.90
15288;DHT22;7745;48.708;9.026;2023-12-22T03:12:12;7.20;99.90
15288;DHT22;7745;48.708;9.026;2023-12-22T03:14:41;7.10;99.90
15288;DHT22;7745;48.708;9.026;2023-12-22T03:17:08;7.10;99.90
15288;DHT22;7745;48.708;9.026;2023-12-22T03:19:36;7.10;99.90
15288;DHT22;7745;48.708;9.026;2023-12-22T03:22:03;7.10;99.90
15288;DHT22;7745;48.708;9.026;2023-12-22T03:24:30;7.20;99.90
15288;DHT22;7745;48.708;9.026;2023-12-22T03:26:56;7.20;99.90
15288;DHT22;7745;48.708;9.026;2023-12-22T03:29:23;7.20;99.90
15288;DHT22;7745;48.708;9.026;2023-12-22T03:31:51;7.20;99.90
15288;DHT22;7745;48.708;9.026;2023-12-22T03:34:18;7.20;99.90
15288;DHT22;7745;48.708;9.026;2023-12-22T03:36:45;7.20;99.90
15288;DHT22;7745;48.708;9.026;2023-12-22T03:39:14;7.20;99.90
15288;DHT22;7745;48.708;9.026;2023-12-22T03:41:41;7.20;99.90
15288;DHT22;7745;48.708;9.026;2023-12-22T03:44:08;7.20;99.90
15288;DHT22;7745;48.708;9.026;2023-12-22T03:46:34;7.20;99.90
15288;DHT22;7745;48.708;9.026;2023-12-22T03:49:02;7.20;99.90
15288;DHT22;7745;48.708;9.026;2023-12-22T03:51:29;7.30;99.90
15288;DHT22;7745;48.708;9.026;2023-12-22T03:53:56;7.30;99.90
15288;DHT22;7745;48.708;9.026;2023-12-22T03:56:23;7.20;99.90
15288;DHT22;7745;48.708;9.026;2023-12-22T03:58:50;7.60;99.90
15288;DHT22;7745;48.708;9.026;2023-12-22T04:01:16;7.20;99.90
15288;DHT22;7745;48.708;9.026;2023-12-22T04:03:43;7.50;99.90
15288;DHT22;7745;48.708;9.026;2023-12-22T04:06:11;7.10;99.90
15288;DHT22;7745;48.708;9.026;2023-12-22T04:08:38;7.10;99.90
15288;DHT22;7745;48.708;9.026;2023-12-22T04:11:05;7.20;99.90
15288;DHT22;7745;48.708;9.026;2023-12-22T04:13:31;7.20;99.90
15288;DHT22;7745;48.708;9.026;2023-12-22T04:15:58;7.20;99.90
15288;DHT22;7745;48.708;9.026;2023-12-22T04:18:25;7.20;99.90
15288;DHT22;7745;48.708;9.026;2023-12-22T04:20:52;7.20;99.90
15288;DHT22;7745;48.708;9.026;2023-12-22T04:23:22;7.20;99.90
15288;DHT22;7745;48.708;9.026;2023-12-22T04:25:49;7.10;99.90
15288;DHT22;7745;48.708;9.026;2023-12-22T04:28:16;7.10;99.90
15288;DHT22;7745;48.708;9.026;2023-12-22T04:30:42;7.00;99.90
15288;DHT22;7745;48.708;9.026;2023-12-22T04:33:09;6.90;99.90
15288;DHT22;7745;48.708;9.026;2023-12-22T04:35:36;6.80;99.90
15288;DHT22;7745;48.708;9.026;2023-12-22T04:38:03;6.80;99.90
15288;DHT22;7745;48.708;9.026;2023-12-22T04:40:31;6.70;99.90
15288;DHT22;7745;48.708;9.026;2023-12-22T04:42:58;6.70;99.90
15288;DHT22;7745;48.708;9.026;2023-12-22T04:45:24;6.70;99.90
15288;DHT22;7745;48.708;9.026;2023-12-22T04:47:51;6.70;99.90
15288;DHT22;7745;48.708;9.026;2023-12-22T04:50:18;6.70;99.90
15288;DHT22;7745;48.708;9.026;2023-12-22T04:52:45;6.70;99.90
15288;DHT22;7745;48.708;9.026;2023-12-22T04:55:12;7.20;99.90
15288;DHT22;7745;48.708;9.026;2023-12-22T04:57:40;6.70;99.90
15288;DHT22;7745;48.708;9.026;2023-12-22T05:00:08;6.90;99.90
15288;DHT22;7745;48.708;9.026;2023-12-22T05:02:34;6.70;99.90
15288;DHT22;7745;48.708;9.026;2023-12-22T05:05:01;6.80;99.90
15288;DHT22;7745;48.708;9.026;2023-12-22T05:07:28;6.80;99.90
15288;DHT22;7745;48.708;9.026;2023-12-22T05:09:55;7.20;99.90
15288;DHT22;7745;48.708;9.026;2023-12-22T05:12:22;6.80;99.90
15288;DHT22;7745;48.708;9.026;2023-12-22T05:14:50;6.90;99.90
15288;DHT22;7745;48.708;9.026;2023-12-22T05:17:17;6.90;99.90
15288;DHT22;7745;48.708;9.026;2023-12-22T05:19:44;6.90;99.90
15288;DHT22;7745;48.708;9.026;2023-12-22T05:22:11;6.90;99.90
15288;DHT22;7745;48.708;9.026;2023-12-22T05:24:37;7.50;99.90
15288;DHT22;7745;48.708;9.026;2023-12-22T05:27:04;6.90;99.90
15288;DHT22;7745;48.708;9.026;2023-12-22T05:29:31;6.90;99.90
15288;DHT22;7745;48.708;9.026;2023-12-22T05:32:00;7.10;99.90
15288;DHT22;7745;48.708;9.026;2023-12-22T05:34:27;6.90;99.90
15288;DHT22;7745;48.708;9.026;2023-12-22T05:36:53;6.90;99.90
15288;DHT22;7745;48.708;9.026;2023-12-22T05:39:20;6.90;99.90
15288;DHT22;7745;48.708;9.026;2023-12-22T05:41:47;7.00;99.90
15288;DHT22;7745;48.708;9.026;2023-12-22T05:44:14;7.00;99.90
15288;DHT22;7745;48.708;9.026;2023-12-22T05:46:40;7.00;99.90
15288;DHT22;7745;48.708;9.026;2023-12-22T05:49:08;7.10;99.90
15288;DHT22;7745;48.708;9.026;2023-12-22T05:51:38;7.20;99.90
15288;DHT22;7745;48.708;9.026;2023-12-22T05:54:06;7.20;99.90
15288;DHT22;7745;48.708;9.026;2023-12-22T05:56:33;7.20;99.90
15288;DHT22;7745;48.708;9.026;2023-12-22T05:59:00;7.20;99.90
15288;DHT22;7745;48.708;9.026;2023-12-22T06:01:27;7.20;99.90
15288;DHT22;7745;48.708;9.026;2023-12-22T06:03:54;7.30;99.90
15288;DHT22;7745;48.708;9.026;2023-12-22T06:06:23;7.20;99.90
15288;DHT22;7745;48.708;9.026;2023-12-22T06:08:49;7.20;99.90
15288;DHT22;7745;48.708;9.026;2023-12-22T06:11:16;7.20;99.90
15288;DHT22;7745;48.708;9.026;2023-12-22T06:13:43;7.20;99.90
15288;DHT22;7745;48.708;9.026;2023-12-22T06:16:13;7.20;99.90
15288;DHT22;7745;48.708;9.026;2023-12-22T06:18:40;7.20;99.90
15288;DHT22;7745;48.708;9.026;2023-12-22T06:21:08;7.20;99.90
15288;DHT22;7745;48.708;9.026;2023-12-22T06:23:39;7.20;99.90
15288;DHT22;7745;48.708;9.026;2023-12-22T06:26:10;7.20;99.90
15288;DHT22;7745;48.708;9.026;2023-12-22T06:28:48;7.20;99.90
15288;DHT22;7745;48.708;9.026;2023-12-22T06:31:19;7.60;99.90
15288;DHT22;7745;48.708;9.026;2023-12-22T06:33:47;7.20;99.90
15288;DHT22;7745;48.708;9.026;2023-12-22T06:36:20;7.10;99.90
15288;DHT22;7745;48.708;9.026;2023-12-22T06:38:49;7.10;99.90
15288;DHT22;7745;48.708;9.026;2023-12-22T06:41:20;7.10;99.90
15288;DHT22;7745;48.708;9.026;2023-12-22T06:43:47;7.10;99.90
15288;DHT22;7745;48.708;9.026;2023-12-22T06:46:17;7.40;99.90
15288;DHT22;7745;48.708;9.026;2023-12-22T06:48:44;7.10;99.90
15288;DHT22;7745;48.708;9.026;2023-12-22T06:51:18;7.10;99.90
15288;DHT22;7745;48.708;9.026;2023-12-22T06:53:45;7.10;99.90
15288;DHT22;7745;48.708;9.026;2023-12-22T06:56:17;7.00;99.90
15288;DHT22;7745;48.708;9.026;2023-12-22T06:58:44;7.40;99.90
15288;DHT22;7745;48.708;9.026;2023-12-22T07:01:13;6.90;99.90
15288;DHT22;7745;48.708;9.026;2023-12-22T07:03:43;6.70;99.90
15288;DHT22;7745;48.708;9.026;2023-12-22T07:06:10;6.80;99.90
15288;DHT22;7745;48.708;9.026;2023-12-22T07:08:37;6.60;99.90
15288;DHT22;7745;48.708;9.026;2023-12-22T07:11:04;6.60;99.90
15288;DHT22;7745;48.708;9.026;2023-12-22T07:13:36;6.60;99.90
15288;DHT22;7745;48.708;9.026;2023-12-22T07:16:03;6.60;99.90
15288;DHT22;7745;48.708;9.026;2023-12-22T07:18:32;6.60;99.90
15288;DHT22;7745;48.708;9.026;2023-12-22T07:20:59;6.60;99.90
15288;DHT22;7745;48.708;9.026;2023-12-22T07:23:26;6.70;99.90
15288;DHT22;7745;48.708;9.026;2023-12-22T07:25:53;6.70;99.90
15288;DHT22;7745;48.708;9.026;2023-12-22T07:28:20;6.70;99.90
15288;DHT22;7745;48.708;9.026;2023-12-22T07:30:48;6.70;99.90
15288;DHT22;7745;48.708;9.026;2023-12-22T07:33:14;7.20;99.90
15288;DHT22;7745;48.708;9.026;2023-12-22T07:35:41;6.70;99.90
15288;DHT22;7745;48.708;9.026;2023-12-22T07:38:08;6.70;99.90
15288;DHT22;7745;48.708;9.026;2023-12-22T07:40:35;6.60;99.90
15288;DHT22;7745;48.708;9.026;2023-12-22T07:43:02;6.60;99.90
15288;DHT22;7745;48.708;9.026;2023-12-22T07:45:29;6.50;99.90
15288;DHT22;7745;48.708;9.026;2023-12-22T07:47:57;6.50;99.90
15288;DHT22;7745;48.708;9.026;2023-12-22T07:50:24;6.90;99.90
15288;DHT22;7745;48.708;9.026;2023-12-22T07:52:51;6.50;99.90
15288;DHT22;7745;48.708;9.026;2023-12-22T07:55:25;6.90;99.90
15288;DHT22;7745;48.708;9.026;2023-12-22T07:57:52;6.70;99.90
15288;DHT22;7745;48.708;9.026;2023-12-22T08:00:19;6.40;99.90
15288;DHT22;7745;48.708;9.026;2023-12-22T08:02:49;6.40;99.90
15288;DHT22;7745;48.708;9.026;2023-12-22T08:05:17;6.30;99.90
15288;DHT22;7745;48.708;9.026;2023-12-22T08:07:44;6.40;99.90
15288;DHT22;7745;48.708;9.026;2023-12-22T08:10:11;6.30;99.90
15288;DHT22;7745;48.708;9.026;2023-12-22T08:12:41;6.40;99.90
15288;DHT22;7745;48.708;9.026;2023-12-22T08:15:08;6.40;99.90
15288;DHT22;7745;48.708;9.026;2023-12-22T08:17:36;6.50;99.90
15288;DHT22;7745;48.708;9.026;2023-12-22T08:20:06;6.60;99.90
15288;DHT22;7745;48.708;9.026;2023-12-22T08:22:37;6.70;99.90
15288;DHT22;7745;48.708;9.026;2023-12-22T08:25:04;6.80;99.90
15288;DHT22;7745;48.708;9.026;2023-12-22T08:27:31;6.90;99.90
15288;DHT22;7745;48.708;9.026;2023-12-22T08:29:58;7.00;99.90
15288;DHT22;7745;48.708;9.026;2023-12-22T08:32:25;7.00;99.90
15288;DHT22;7745;48.708;9.026;2023-12-22T08:34:52;7.00;99.90
15288;DHT22;7745;48.708;9.026;2023-12-22T08:37:18;7.00;99.90
15288;DHT22;7745;48.708;9.026;2023-12-22T08:39:47;6.90;99.90
15288;DHT22;7745;48.708;9.026;2023-12-22T08:42:14;7.30;99.90
15288;DHT22;7745;48.708;9.026;2023-12-22T08:44:41;7.40;99.90
15288;DHT22;7745;48.708;9.026;2023-12-22T08:47:07;6.90;99.90
15288;DHT22;7745;48.708;9.026;2023-12-22T08:49:34;6.90;99.90
15288;DHT22;7745;48.708;9.026;2023-12-22T08:52:01;6.80;99.90
15288;DHT22;7745;48.708;9.026;2023-12-22T08:54:29;6.80;99.90
15288;DHT22;7745;48.708;9.026;2023-12-22T08:56:57;6.80;99.90
15288;DHT22;7745;48.708;9.026;2023-12-22T08:59:24;6.90;99.90
15288;DHT22;7745;48.708;9.026;2023-12-22T09:01:51;6.80;99.90
15288;DHT22;7745;48.708;9.026;2023-12-22T09:04:18;6.80;99.90
15288;DHT22;7745;48.708;9.026;2023-12-22T09:06:48;6.80;99.90
15288;DHT22;7745;48.708;9.026;2023-12-22T09:09:14;7.00;99.90
15288;DHT22;7745;48.708;9.026;2023-12-22T09:11:41;6.90;99.90
15288;DHT22;7745;48.708;9.026;2023-12-22T09:14:09;7.00;99.90
15288;DHT22;7745;48.708;9.026;2023-12-22T09:16:36;7.10;99.90
15288;DHT22;7745;48.708;9.026;2023-12-22T09:19:04;7.10;99.90
15288;DHT22;7745;48.708;9.026;2023-12-22T09:21:30;7.20;99.90
15288;DHT22;7745;48.708;9.026;2023-12-22T09:23:57;7.20;99.90
15288;DHT22;7745;48.708;9.026;2023-12-22T09:26:24;7.20;99.90
15288;DHT22;7745;48.708;9.026;2023-12-22T09:28:51;7.30;99.90
15288;DHT22;7745;48.708;9.026;2023-12-22T09:31:19;7.20;99.90
15288;DHT22;7745;48.708;9.026;2023-12-22T09:33:47;7.70;99.90
15288;DHT22;7745;48.708;9.026;2023-12-22T09:36:14;7.20;99.90
15288;DHT22;7745;48.708;9.026;2023-12-22T09:38:41;7.30;99.90
15288;DHT22;7745;48.708;9.026;2023-12-22T09:41:09;7.30;99.90
15288;DHT22;7745;48.708;9.026;2023-12-22T09:43:37;7.30;99.90
15288;DHT22;7745;48.708;9.026;2023-12-22T09:46:05;7.40;99.90
15288;DHT22;7745;48.708;9.026;2023-12-22T09:48:34;7.70;99.90
15288;DHT22;7745;48.708;9.026;2023-12-22T09:51:05;7.30;99.90
15288;DHT22;7745;48.708;9.026;2023-12-22T09:53:33;7.40;99.90
15288;DHT22;7745;48.708;9.026;2023-12-22T09:56:02;7.40;99.90
15288;DHT22;7745;48.708;9.026;2023-12-22T09:58:30;7.40;99.90
15288;DHT22;7745;48.708;9.026;2023-12-22T10:00:57;7.40;99.90
15288;DHT22;7745;48.708;9.026;2023-12-22T10:03:28;7.40;99.90
15288;DHT22;7745;48.708;9.026;2023-12-22T10:05:56;7.40;99.90
15288;DHT22;7745;48.708;9.026;2023-12-22T10:08:24;7.40;99.90
15288;DHT22;7745;48.708;9.026;2023-12-22T10:10:51;7.40;99.90
15288;DHT22;7745;48.708;9.026;2023-12-22T10:13:18;7.50;99.90
15288;DHT22;7745;48.708;9.026;2023-12-22T10:15:46;7.50;99.90
15288;DHT22;7745;48.708;9.026;2023-12-22T10:18:13;7.50;99.90
15288;DHT22;7745;48.708;9.026;2023-12-22T10:20:40;7.50;99.90
15288;DHT22;7745;48.708;9.026;2023-12-22T10:23:10;7.50;99.90
15288;DHT22;7745;48.708;9.026;2023-12-22T10:25:36;7.50;99.90
15288;DHT22;7745;48.708;9.026;2023-12-22T10:28:10;7.60;99.90
15288;DHT22;7745;48.708;9.026;2023-12-22T10:30:37;7.60;99.90
15288;DHT22;7745;48.708;9.026;2023-12-22T10:33:05;7.60;99.90
15288;DHT22;7745;48.708;9.026;2023-12-22T10:35:32;7.60;99.90
15288;DHT22;7745;48.708;9.026;2023-12-22T10:37:59;7.60;99.90
15288;DHT22;7745;48.708;9.026;2023-12-22T10:40:27;7.60;99.90
15288;DHT22;7745;48.708;9.026;2023-12-22T10:42:54;7.60;99.90
15288;DHT22;7745;48.708;9.026;2023-12-22T10:45:21;7.60;99.90
15288;DHT22;7745;48.708;9.026;2023-12-22T10:47:49;7.60;99.90
15288;DHT22;7745;48.708;9.026;2023-12-22T10:50:19;7.60;99.90
15288;DHT22;7745;48.708;9.026;2023-12-22T10:52:49;8.00;99.90
15288;DHT22;7745;48.708;9.026;2023-12-22T10:55:16;7.60;99.90
15288;DHT22;7745;48.708;9.026;2023-12-22T10:57:45;7.60;99.90
15288;DHT22;7745;48.708;9.026;2023-12-22T11:00:14;7.50;99.90
15288;DHT22;7745;48.708;9.026;2023-12-22T11:02:42;7.50;99.90
15288;DHT22;7745;48.708;9.026;2023-12-22T11:05:11;7.50;99.90
15288;DHT22;7745;48.708;9.026;2023-12-22T11:07:41;7.50;99.90
15288;DHT22;7745;48.708;9.026;2023-12-22T11:10:10;7.50;99.90
15288;DHT22;7745;48.708;9.026;2023-12-22T11:12:39;7.50;99.90
15288;DHT22;7745;48.708;9.026;2023-12-22T11:15:09;7.50;99.90
15288;DHT22;7745;48.708;9.026;2023-12-22T11:17:37;7.50;99.90
15288;DHT22;7745;48.708;9.026;2023-12-22T11:20:09;7.50;99.90
15288;DHT22;7745;48.708;9.026;2023-12-22T11:22:36;7.50;99.90
15288;DHT22;7745;48.708;9.026;2023-12-22T11:25:05;7.50;99.90
15288;DHT22;7745;48.708;9.026;2023-12-22T11:27:33;7.40;99.90
15288;DHT22;7745;48.708;9.026;2023-12-22T11:30:01;7.40;99.90
15288;DHT22;7745;48.708;9.026;2023-12-22T11:32:29;7.40;99.90
15288;DHT22;7745;48.708;9.026;2023-12-22T11:34:57;7.30;99.90
15288;DHT22;7745;48.708;9.026;2023-12-22T11:37:24;7.30;99.90
15288;DHT22;7745;48.708;9.026;2023-12-22T11:39:51;7.20;99.90
15288;DHT22;7745;48.708;9.026;2023-12-22T11:42:21;7.20;99.90
15288;DHT22;7745;48.708;9.026;2023-12-22T11:44:49;7.10;99.90
15288;DHT22;7745;48.708;9.026;2023-12-22T11:47:16;7.10;99.90
15288;DHT22;7745;48.708;9.026;2023-12-22T11:49:45;7.20;99.90
15288;DHT22;7745;48.708;9.026;2023-12-22T11:52:13;7.10;99.90
15288;DHT22;7745;48.708;9.026;2023-12-22T11:54:50;7.60;99.90
15288;DHT22;7745;48.708;9.026;2023-12-22T11:57:30;7.10;99.90
15288;DHT22;7745;48.708;9.026;2023-12-22T11:59:58;7.10;99.90
15288;DHT22;7745;48.708;9.026;2023-12-22T12:02:31;7.20;99.90
15288;DHT22;7745;48.708;9.026;2023-12-22T12:05:00;7.40;99.90
15288;DHT22;7745;48.708;9.026;2023-12-22T12:07:40;7.10;99.90
15288;DHT22;7745;48.708;9.026;2023-12-22T12:10:10;7.10;99.90
15288;DHT22;7745;48.708;9.026;2023-12-22T12:12:37;7.10;99.90
15288;DHT22;7745;48.708;9.026;2023-12-22T12:15:09;7.10;99.90
15288;DHT22;7745;48.708;9.026;2023-12-22T12:17:41;7.10;99.90
15288;DHT22;7745;48.708;9.026;2023-12-22T12:20:11;7.00;99.90
15288;DHT22;7745;48.708;9.026;2023-12-22T12:22:38;7.00;99.90
15288;DHT22;7745;48.708;9.026;2023-12-22T12:25:10;7.00;99.90
15288;DHT22;7745;48.708;9.026;2023-12-22T12:27:37;7.00;99.90
15288;DHT22;7745;48.708;9.026;2023-12-22T12:30:11;7.00;99.90
15288;DHT22;7745;48.708;9.026;2023-12-22T12:32:38;7.00;99.90
15288;DHT22;7745;48.708;9.026;2023-12-22T12:35:05;7.00;99.90
15288;DHT22;7745;48.708;9.026;2023-12-22T12:37:34;7.00;99.90
15288;DHT22;7745;48.708;9.026;2023-12-22T12:40:02;6.90;99.90
15288;DHT22;7745;48.708;9.026;2023-12-22T12:42:30;6.90;99.90
15288;DHT22;7745;48.708;9.026;2023-12-22T12:44:57;7.00;99.90
15288;DHT22;7745;48.708;9.026;2023-12-22T12:47:24;7.00;99.90
15288;DHT22;7745;48.708;9.026;2023-12-22T12:49:56;7.00;99.90
15288;DHT22;7745;48.708;9.026;2023-12-22T12:52:24;7.00;99.90
15288;DHT22;7745;48.708;9.026;2023-12-22T12:54:53;7.00;99.90
15288;DHT22;7745;48.708;9.026;2023-12-22T12:57:21;7.10;99.90
15288;DHT22;7745;48.708;9.026;2023-12-22T12:59:49;7.10;99.90
15288;DHT22;7745;48.708;9.026;2023-12-22T13:02:16;7.10;99.90
15288;DHT22;7745;48.708;9.026;2023-12-22T13:04:43;7.20;99.90
15288;DHT22;7745;48.708;9.026;2023-12-22T13:07:10;7.20;99.90
15288;DHT22;7745;48.708;9.026;2023-12-22T13:09:39;7.50;99.90
15288;DHT22;7745;48.708;9.026;2023-12-22T13:12:09;7.70;99.90
15288;DHT22;7745;48.708;9.026;2023-12-22T13:14:36;7.30;99.90
15288;DHT22;7745;48.708;9.026;2023-12-22T13:17:03;7.40;99.90
15288;DHT22;7745;48.708;9.026;2023-12-22T13:19:32;7.60;99.90
15288;DHT22;7745;48.708;9.026;2023-12-22T13:21:58;7.40;99.90
15288;DHT22;7745;48.708;9.026;2023-12-22T13:24:26;7.40;99.90
15288;DHT22;7745;48.708;9.026;2023-12-22T13:27:00;7.50;99.90
15288;DHT22;7745;48.708;9.026;2023-12-22T13:29:29;7.60;99.90
15288;DHT22;7745;48.708;9.026;2023-12-22T13:31:56;7.60;99.90
15288;DHT22;7745;48.708;9.026;2023-12-22T13:34:23;7.70;99.90
15288;DHT22;7745;48.708;9.026;2023-12-22T13:36:51;7.80;99.90
15288;DHT22;7745;48.708;9.026;2023-12-22T13:39:18;7.90;99.90
15288;DHT22;7745;48.708;9.026;2023-12-22T13:41:45;8.00;99.90
15288;DHT22;7745;48.708;9.026;2023-12-22T13:44:12;8.00;99.90
15288;DHT22;7745;48.708;9.026;2023-12-22T13:46:41;8.10;99.90
15288;DHT22;7745;48.708;9.026;2023-12-22T13:49:09;8.20;99.90
15288;DHT22;7745;48.708;9.026;2023-12-22T13:51:40;8.20;99.90
15288;DHT22;7745;48.708;9.026;2023-12-22T13:54:07;8.20;99.90
15288;DHT22;7745;48.708;9.026;2023-12-22T13:56:34;8.20;99.90
15288;DHT22;7745;48.708;9.026;2023-12-22T13:59:02;8.30;99.90
15288;DHT22;7745;48.708;9.026;2023-12-22T14:01:29;8.50;99.90
15288;DHT22;7745;48.708;9.026;2023-12-22T14:03:57;8.30;99.90
15288;DHT22;7745;48.708;9.026;2023-12-22T14:06:25;8.40;99.90
15288;DHT22;7745;48.708;9.026;2023-12-22T14:08:52;8.30;99.90
15288;DHT22;7745;48.708;9.026;2023-12-22T14:11:19;8.50;99.90
15288;DHT22;7745;48.708;9.026;2023-12-22T14:13:46;8.40;99.90
15288;DHT22;7745;48.708;9.026;2023-12-22T14:16:12;8.40;99.90
15288;DHT22;7745;48.708;9.026;2023-12-22T14:18:40;8.40;99.90
15288;DHT22;7745;48.708;9.026;2023-12-22T14:21:08;8.60;99.90
15288;DHT22;7745;48.708;9.026;2023-12-22T14:23:35;8.40;99.90
15288;DHT22;7745;48.708;9.026;2023-12-22T14:26:02;8.40;99.90
15288;DHT22;7745;48.708;9.026;2023-12-22T14:28:31;8.40;99.90
15288;DHT22;7745;48.708;9.026;2023-12-22T14:30:57;8.40;99.90
15288;DHT22;7745;48.708;9.026;2023-12-22T14:33:24;8.40;99.90
15288;DHT22;7745;48.708;9.026;2023-12-22T14:35:52;8.40;99.90
15288;DHT22;7745;48.708;9.026;2023-12-22T14:38:20;8.50;99.90
15288;DHT22;7745;48.708;9.026;2023-12-22T14:40:47;8.50;99.90
15288;DHT22;7745;48.708;9.026;2023-12-22T14:43:14;8.50;99.90
15288;DHT22;7745;48.708;9.026;2023-12-22T14:45:41;8.60;99.90
15288;DHT22;7745;48.708;9.026;2023-12-22T14:48:08;8.60;99.90
15288;DHT22;7745;48.708;9.026;2023-12-22T14:50:34;8.60;99.90
15288;DHT22;7745;48.708;9.026;2023-12-22T14:53:01;8.60;99.90
15288;DHT22;7745;48.708;9.026;2023-12-22T14:55:30;8.70;99.90
15288;DHT22;7745;48.708;9.026;2023-12-22T14:57:57;8.90;99.90
15288;DHT22;7745;48.708;9.026;2023-12-22T15:00:24;8.70;99.90
15288;DHT22;7745;48.708;9.026;2023-12-22T15:02:51;8.60;99.90
15288;DHT22;7745;48.708;9.026;2023-12-22T15:05:18;8.60;99.90
15288;DHT22;7745;48.708;9.026;2023-12-22T15:07:44;8.60;99.90
15288;DHT22;7745;48.708;9.026;2023-12-22T15:10:11;8.60;99.90
15288;DHT22;7745;48.708;9.026;2023-12-22T15:12:39;8.60;99.90
15288;DHT22;7745;48.708;9.026;2023-12-22T15:15:08;8.60;99.90
15288;DHT22;7745;48.708;9.026;2023-12-22T15:17:35;8.60;99.90
15288;DHT22;7745;48.708;9.026;2023-12-22T15:20:02;8.90;99.90
15288;DHT22;7745;48.708;9.026;2023-12-22T15:22:30;8.60;99.90
15288;DHT22;7745;48.708;9.026;2023-12-22T15:24:57;8.60;99.90
15288;DHT22;7745;48.708;9.026;2023-12-22T15:27:24;8.60;99.90
15288;DHT22;7745;48.708;9.026;2023-12-22T15:29:53;8.60;99.90
15288;DHT22;7745;48.708;9.026;2023-12-22T15:32:20;8.60;99.90
15288;DHT22;7745;48.708;9.026;2023-12-22T15:34:47;8.60;99.90
15288;DHT22;7745;48.708;9.026;2023-12-22T15:37:13;8.70;99.90
15288;DHT22;7745;48.708;9.026;2023-12-22T15:39:40;8.80;99.90
15288;DHT22;7745;48.708;9.026;2023-12-22T15:42:07;8.90;99.90
15288;DHT22;7745;48.708;9.026;2023-12-22T15:44:39;8.70;99.90
15288;DHT22;7745;48.708;9.026;2023-12-22T15:47:07;8.70;99.90
15288;DHT22;7745;48.708;9.026;2023-12-22T15:49:37;8.80;99.90
15288;DHT22;7745;48.708;9.026;2023-12-22T15:52:05;9.30;99.90
15288;DHT22;7745;48.708;9.026;2023-12-22T15:54:33;9.00;99.90
15288;DHT22;7745;48.708;9.026;2023-12-22T15:56:59;8.70;99.90
15288;DHT22;7745;48.708;9.026;2023-12-22T15:59:27;8.70;99.90
15288;DHT22;7745;48.708;9.026;2023-12-22T16:01:54;8.70;99.90
15288;DHT22;7745;48.708;9.026;2023-12-22T16:04:22;8.60;99.90